Time;durP1;ratioP1;P1;durP2;ratioP2;P2;SDS_P1;SDS_P2;PMS_P1;PMS_P2;Temp;Humidity;BMP_temperature;BMP_pressure;BME280_temperature;BME280_humidity;BME280_pressure;Samples;Min_cycle;Max_cycle;Signal;HPM_P1;HPM_P2
2023/08/16 08:51:43;;;;;;;2.90;2.35;;;;;;;28.91;80.73;100621.38;6633420;26;34858;-89
2023/08/16 09:05:40;;;;;;;3.42;2.60;;;;;;;30.87;71.46;100629.25;6667519;26;33645;-90
2023/08/16 09:12:20;;;;;;;3.03;2.47;;;;;;;30.16;70.90;100636.66;6663171;26;20366;-90
2023/08/16 09:15:40;;;;;;;2.58;2.37;;;;;;;29.89;69.98;100633.69;6661364;26;34459;-91
2023/08/16 09:26:32;;;;;;;3.15;2.42;;;;;;;31.06;62.56;100630.37;6667517;26;20059;-90
2023/08/16 09:40:54;;;;;;;2.80;2.37;;;;;;;31.51;58.99;100628.97;6666489;26;20475;-89
2023/08/16 09:44:07;;;;;;;3.22;2.92;;;;;;;31.62;58.03;100624.75;6664875;26;33710;-89
2023/08/16 09:47:14;;;;;;;2.83;2.60;;;;;;;31.23;58.96;100630.00;6664831;26;34349;-90
2023/08/16 09:50:23;;;;;;;3.15;2.85;;;;;;;32.62;55.03;100633.94;6664607;26;34043;-90
2023/08/16 09:53:27;;;;;;;3.47;3.08;;;;;;;31.94;53.93;100618.69;6666622;26;34006;-91
2023/08/16 09:56:34;;;;;;;3.47;2.50;;;;;;;32.84;54.13;100619.91;6666923;26;34399;-91
2023/08/16 09:59:40;;;;;;;2.67;2.47;;;;;;;33.35;50.21;100625.56;6665548;26;34577;-90
2023/08/16 10:02:48;;;;;;;3.62;2.47;;;;;;;33.44;48.26;100620.63;6664587;26;35074;-89
2023/08/16 10:05:54;;;;;;;2.95;2.65;;;;;;;32.38;49.40;100627.25;6665637;26;34026;-90
2023/08/16 10:08:57;;;;;;;3.10;2.80;;;;;;;31.93;49.68;100626.03;6673187;26;33996;-89
2023/08/16 10:12:04;;;;;;;3.35;2.62;;;;;;;31.49;51.98;100622.03;6676947;26;33986;-89
2023/08/16 10:15:08;;;;;;;3.30;3.00;;;;;;;31.70;51.59;100618.22;6667079;26;34878;-90
2023/08/16 10:18:12;;;;;;;2.53;2.33;;;;;;;31.98;51.43;100629.00;6670103;26;34241;-90
2023/08/16 10:21:16;;;;;;;2.60;2.40;;;;;;;32.40;48.90;100628.75;6671242;26;33630;-91
2023/08/16 10:24:21;;;;;;;2.47;2.28;;;;;;;32.34;49.43;100643.31;6670497;26;33882;-91
2023/08/16 10:35:05;;;;;;;2.65;2.45;;;;;;;32.08;49.54;100635.97;6668749;26;20067;-89
2023/08/16 10:38:10;;;;;;;2.87;2.60;;;;;;;32.88;47.07;100636.78;6667231;26;33890;-90
2023/08/16 10:48:36;;;;;;;3.22;2.35;;;;;;;37.29;36.76;100648.00;6667469;26;20062;-87
2023/08/16 10:51:43;;;;;;;2.33;2.08;;;;;;;39.30;33.98;100648.28;6664762;26;34021;-90
2023/08/16 10:54:46;;;;;;;2.67;2.37;;;;;;;37.17;35.62;100642.53;6664579;26;33803;-87
2023/08/16 10:57:52;;;;;;;2.62;2.30;;;;;;;35.39;39.37;100638.84;6664618;26;33851;-88
2023/08/16 11:01:04;;;;;;;2.97;2.67;;;;;;;33.93;41.36;100625.53;6666820;26;34027;-91
2023/08/16 11:04:07;;;;;;;2.90;2.70;;;;;;;33.40;42.57;100622.12;6663909;26;33809;-88
2023/08/16 11:07:09;;;;;;;3.00;2.80;;;;;;;32.83;45.47;100620.94;6664090;26;35086;-89
2023/08/16 11:10:15;;;;;;;2.42;2.22;;;;;;;33.14;44.34;100619.31;6664650;26;34531;-88
2023/08/16 11:13:21;;;;;;;3.12;2.62;;;;;;;33.09;44.61;100612.81;6664327;26;33879;-88
2023/08/16 11:16:24;;;;;;;3.53;3.00;;;;;;;32.07;46.99;100618.66;6669561;26;34280;-88
2023/08/16 11:19:26;;;;;;;2.87;2.60;;;;;;;32.27;46.18;100621.34;6663513;26;34363;-88
2023/08/16 11:22:30;;;;;;;2.62;2.30;;;;;;;32.67;45.41;100627.78;6663854;26;33951;-88
2023/08/16 11:25:33;;;;;;;3.33;2.85;;;;;;;32.37;44.73;100634.63;6665308;26;33775;-88
2023/08/16 11:28:39;;;;;;;3.80;2.58;;;;;;;32.07;45.79;100634.28;6664411;26;34280;-88
2023/08/16 11:31:43;;;;;;;3.15;2.53;;;;;;;31.12;47.56;100630.59;6661457;26;33944;-89
2023/08/16 11:34:46;;;;;;;2.78;2.58;;;;;;;31.33;46.85;100624.13;6664713;26;33897;-88
2023/08/16 11:37:48;;;;;;;3.00;2.70;;;;;;;31.28;48.74;100618.44;6665185;26;34434;-88
2023/08/16 11:40:51;;;;;;;2.55;2.35;;;;;;;31.36;49.14;100614.66;6666252;26;34866;-90
2023/08/16 11:44:01;;;;;;;2.62;2.28;;;;;;;31.74;48.44;100605.81;6665609;26;34691;-89
2023/08/16 11:47:09;;;;;;;3.40;3.03;;;;;;;31.98;48.19;100606.22;6666670;26;33863;-89
2023/08/16 11:53:58;;;;;;;3.20;2.72;;;;;;;31.52;51.09;100600.53;6667716;26;20062;-88
2023/08/16 11:57:02;;;;;;;2.78;2.50;;;;;;;31.60;49.38;100602.22;6665316;26;35531;-89
2023/08/16 12:00:10;;;;;;;3.37;2.75;;;;;;;32.05;47.93;100607.06;6663085;26;33823;-88
2023/08/16 12:03:14;;;;;;;3.42;2.70;;;;;;;32.11;47.78;100600.72;6665019;26;33418;-89
2023/08/16 12:06:17;;;;;;;2.50;2.30;;;;;;;31.96;47.19;100595.47;6661275;26;34900;-89
2023/08/16 12:28:08;;;;;;;2.92;2.62;;;;;;;31.30;50.14;100564.25;6666347;26;20047;-89
2023/08/16 12:31:11;;;;;;;3.00;2.70;;;;;;;31.10;50.12;100559.56;6667296;26;33956;-88
2023/08/16 12:34:16;;;;;;;2.95;2.37;;;;;;;31.09;50.12;100568.84;6668541;26;33856;-89
2023/08/16 12:37:19;;;;;;;2.55;2.28;;;;;;;31.09;50.37;100571.59;6667583;26;34674;-90
2023/08/16 12:40:26;;;;;;;4.03;2.85;;;;;;;30.95;49.12;100562.50;6669043;26;34021;-90
2023/08/16 12:43:29;;;;;;;2.42;2.22;;;;;;;30.79;48.30;100563.72;6664868;26;33832;-90
2023/08/16 12:46:34;;;;;;;2.97;2.62;;;;;;;30.61;51.54;100556.06;6664685;26;34077;-89
2023/08/16 12:49:37;;;;;;;3.65;2.40;;;;;;;30.91;51.42;100555.72;6667129;26;34034;-89
2023/08/16 12:56:27;;;;;;;3.53;2.65;;;;;;;30.95;51.62;100547.94;6672307;26;20039;-89
2023/08/16 12:59:30;;;;;;;2.37;2.17;;;;;;;31.01;50.57;100541.63;6680007;26;34720;-89
2023/08/16 13:02:33;;;;;;;2.90;2.60;;;;;;;31.16;50.30;100542.28;6676123;26;33623;-88
2023/08/16 13:05:39;;;;;;;3.15;2.85;;;;;;;30.67;52.47;100541.56;6664256;26;34068;-88
2023/08/16 13:08:56;;;;;;;2.50;2.28;;;;;;;30.60;50.42;100538.78;6663991;26;33914;-89
2023/08/16 13:12:06;;;;;;;2.28;2.00;;;;;;;30.90;49.99;100543.94;6665340;26;33842;-89
2023/08/16 13:15:11;;;;;;;3.03;2.40;;;;;;;30.99;48.70;100541.00;6665397;26;34869;-90
2023/08/16 13:22:12;;;;;;;2.78;2.35;;;;;;;30.81;49.68;100527.94;6665501;26;19967;-90
2023/08/16 13:25:20;;;;;;;3.15;2.85;;;;;;;30.42;49.19;100524.81;6662674;26;33809;-89
2023/08/16 13:28:26;;;;;;;3.10;2.55;;;;;;;30.76;49.26;100526.66;6663069;26;33600;-89
2023/08/16 13:31:47;;;;;;;2.58;2.37;;;;;;;30.61;50.34;100524.03;6663246;26;33520;-88
2023/08/16 13:34:52;;;;;;;2.83;2.53;;;;;;;30.55;50.50;100518.53;6665175;26;34438;-89
2023/08/16 13:37:58;;;;;;;2.22;2.05;;;;;;;30.75;51.46;100516.75;6663731;26;33576;-88
2023/08/16 13:41:00;;;;;;;2.70;2.50;;;;;;;30.71;50.13;100511.91;6664593;26;34021;-90
2023/08/16 13:44:06;;;;;;;2.62;2.42;;;;;;;30.71;48.55;100514.63;6664401;26;34005;-90
2023/08/16 13:47:29;;;;;;;2.92;2.62;;;;;;;30.37;48.42;100512.59;6665379;26;33447;-89
2023/08/16 13:50:33;;;;;;;2.42;2.25;;;;;;;30.07;49.54;100506.56;6663252;26;34024;-88
2023/08/16 13:53:36;;;;;;;2.80;2.25;;;;;;;29.53;51.35;100500.75;6663759;26;33736;-89
2023/08/16 13:56:39;;;;;;;2.47;2.22;;;;;;;29.57;50.67;100497.41;6663933;26;34546;-88
2023/08/16 13:59:50;;;;;;;2.65;2.30;;;;;;;29.26;50.39;100506.00;6662973;26;33759;-89
2023/08/16 14:02:53;;;;;;;2.83;2.17;;;;;;;29.56;49.56;100505.84;6662757;26;33818;-89
2023/08/16 14:05:57;;;;;;;2.97;2.58;;;;;;;29.32;51.36;100494.28;6663371;26;33681;-89
2023/08/16 14:09:00;;;;;;;2.67;2.20;;;;;;;29.19;50.42;100497.72;6665259;26;33812;-89
2023/08/16 14:12:03;;;;;;;2.50;2.30;;;;;;;29.26;51.82;100489.59;6664611;26;33845;-88
2023/08/16 14:15:06;;;;;;;1.95;1.80;;;;;;;29.34;51.57;100497.66;6663512;26;33621;-88
2023/08/16 14:18:09;;;;;;;3.58;2.80;;;;;;;29.17;52.33;100494.37;6663344;26;33702;-91
2023/08/16 14:21:14;;;;;;;3.25;2.80;;;;;;;29.07;53.33;100488.37;6662590;26;34115;-92
2023/08/16 14:24:17;;;;;;;2.75;2.45;;;;;;;28.88;53.79;100486.12;6662823;26;34267;-92
2023/08/16 14:27:20;;;;;;;3.10;2.50;;;;;;;28.82;53.57;100495.06;6664345;26;33912;-88
2023/08/16 14:30:25;;;;;;;2.65;2.12;;;;;;;28.74;52.38;100484.25;6670030;26;34673;-89
2023/08/16 14:33:28;;;;;;;2.62;2.25;;;;;;;28.79;53.03;100485.38;6671031;26;34154;-89
2023/08/16 14:36:32;;;;;;;3.45;2.45;;;;;;;28.90;53.29;100478.56;6668028;26;34057;-90
2023/08/16 14:39:34;;;;;;;2.12;2.00;;;;;;;28.95;52.95;100477.97;6663915;26;34963;-90
2023/08/16 14:42:37;;;;;;;2.40;2.17;;;;;;;28.91;52.84;100485.72;6663994;26;33828;-90
2023/08/16 14:45:41;;;;;;;2.55;2.35;;;;;;;29.03;53.10;100479.75;6664934;26;33795;-90
2023/08/16 15:03:44;;;;;;;2.33;2.12;;;;;;;29.02;52.86;100480.78;6665264;26;20063;-89
2023/08/16 15:06:47;;;;;;;2.40;2.20;;;;;;;29.27;52.32;100481.19;6663716;26;34994;-90
2023/08/16 15:09:50;;;;;;;2.60;2.03;;;;;;;29.09;52.74;100486.28;6669791;26;34567;-90
2023/08/16 15:12:53;;;;;;;2.40;2.20;;;;;;;29.05;53.43;100483.09;6675619;26;33992;-90
2023/08/16 15:15:56;;;;;;;2.10;1.90;;;;;;;29.18;51.49;100483.22;6678884;26;35856;-90
2023/08/16 15:18:59;;;;;;;3.35;2.42;;;;;;;29.24;51.25;100478.88;6664211;26;34889;-89
2023/08/16 15:22:02;;;;;;;2.62;2.40;;;;;;;29.27;51.75;100472.16;6664551;26;34059;-89
2023/08/16 15:32:27;;;;;;;2.83;2.35;;;;;;;29.18;51.92;100464.09;6660576;26;20062;-90
2023/08/16 15:35:30;;;;;;;2.37;2.17;;;;;;;29.27;51.78;100472.16;6660431;26;34609;-90
2023/08/16 15:38:38;;;;;;;2.60;2.20;;;;;;;29.16;52.54;100463.47;6670009;26;33654;-90
2023/08/16 15:41:40;;;;;;;2.40;2.20;;;;;;;29.08;52.12;100460.87;6664014;26;33907;-90
2023/08/16 15:44:43;;;;;;;2.78;2.42;;;;;;;29.07;52.09;100455.62;6659709;26;34884;-90
